sensor_id;sensor_type;location;lat;lon;timestamp;P1;durP1;ratioP1;P2;durP2;ratioP2
42614;SDS011;28754;47.700;7.924;2023-10-08T00:01:38;3.45;;;1.63;;
42614;SDS011;28754;47.700;7.924;2023-10-08T00:04:27;4.00;;;1.75;;
42614;SDS011;28754;47.700;7.924;2023-10-08T00:07:14;1.85;;;0.95;;
42614;SDS011;28754;47.700;7.924;2023-10-08T00:10:01;3.08;;;1.50;;
42614;SDS011;28754;47.700;7.924;2023-10-08T00:12:48;2.30;;;1.17;;
42614;SDS011;28754;47.700;7.924;2023-10-08T00:15:37;7.38;;;1.95;;
42614;SDS011;28754;47.700;7.924;2023-10-08T00:18:27;4.18;;;1.90;;
42614;SDS011;28754;47.700;7.924;2023-10-08T00:21:14;4.88;;;2.42;;
42614;SDS011;28754;47.700;7.924;2023-10-08T00:24:01;3.08;;;1.50;;
42614;SDS011;28754;47.700;7.924;2023-10-08T00:26:52;4.45;;;2.33;;
42614;SDS011;28754;47.700;7.924;2023-10-08T00:29:40;3.00;;;1.70;;
42614;SDS011;28754;47.700;7.924;2023-10-08T00:32:29;2.33;;;1.25;;
42614;SDS011;28754;47.700;7.924;2023-10-08T00:35:16;4.47;;;1.90;;
42614;SDS011;28754;47.700;7.924;2023-10-08T00:38:07;3.83;;;1.95;;
42614;SDS011;28754;47.700;7.924;2023-10-08T00:41:00;4.18;;;2.42;;
42614;SDS011;28754;47.700;7.924;2023-10-08T00:43:47;3.80;;;1.80;;
42614;SDS011;28754;47.700;7.924;2023-10-08T00:46:35;4.32;;;1.67;;
42614;SDS011;28754;47.700;7.924;2023-10-08T00:49:28;2.80;;;1.33;;
42614;SDS011;28754;47.700;7.924;2023-10-08T00:52:28;3.53;;;1.65;;
42614;SDS011;28754;47.700;7.924;2023-10-08T00:55:16;2.80;;;1.17;;
42614;SDS011;28754;47.700;7.924;2023-10-08T00:58:26;1.52;;;0.90;;
42614;SDS011;28754;47.700;7.924;2023-10-08T01:01:13;2.15;;;1.00;;
42614;SDS011;28754;47.700;7.924;2023-10-08T01:04:02;2.25;;;1.10;;
42614;SDS011;28754;47.700;7.924;2023-10-08T01:06:57;2.83;;;0.75;;
42614;SDS011;28754;47.700;7.924;2023-10-08T01:09:47;2.55;;;1.35;;
42614;SDS011;28754;47.700;7.924;2023-10-08T01:12:37;1.67;;;0.80;;
42614;SDS011;28754;47.700;7.924;2023-10-08T01:15:49;6.85;;;1.55;;
42614;SDS011;28754;47.700;7.924;2023-10-08T01:18:37;2.00;;;0.90;;
42614;SDS011;28754;47.700;7.924;2023-10-08T01:21:29;3.88;;;2.20;;
42614;SDS011;28754;47.700;7.924;2023-10-08T01:24:20;7.65;;;1.92;;
42614;SDS011;28754;47.700;7.924;2023-10-08T01:27:10;3.35;;;1.02;;
42614;SDS011;28754;47.700;7.924;2023-10-08T01:29:58;5.85;;;1.58;;
42614;SDS011;28754;47.700;7.924;2023-10-08T01:32:55;4.90;;;1.48;;
42614;SDS011;28754;47.700;7.924;2023-10-08T01:35:42;5.80;;;2.17;;
42614;SDS011;28754;47.700;7.924;2023-10-08T01:38:29;4.63;;;2.00;;
42614;SDS011;28754;47.700;7.924;2023-10-08T01:41:21;13.15;;;2.67;;
42614;SDS011;28754;47.700;7.924;2023-10-08T01:44:16;15.85;;;3.65;;
42614;SDS011;28754;47.700;7.924;2023-10-08T01:47:02;16.17;;;3.58;;
42614;SDS011;28754;47.700;7.924;2023-10-08T01:49:51;19.05;;;3.97;;
42614;SDS011;28754;47.700;7.924;2023-10-08T01:55:34;17.02;;;2.85;;
42614;SDS011;28754;47.700;7.924;2023-10-08T01:58:34;21.10;;;3.25;;
42614;SDS011;28754;47.700;7.924;2023-10-08T02:01:21;27.30;;;4.43;;
42614;SDS011;28754;47.700;7.924;2023-10-08T02:04:09;18.05;;;3.88;;
42614;SDS011;28754;47.700;7.924;2023-10-08T02:06:58;20.80;;;4.30;;
42614;SDS011;28754;47.700;7.924;2023-10-08T02:09:45;19.77;;;4.03;;
42614;SDS011;28754;47.700;7.924;2023-10-08T02:12:32;29.33;;;5.05;;
42614;SDS011;28754;47.700;7.924;2023-10-08T02:15:19;22.27;;;5.88;;
42614;SDS011;28754;47.700;7.924;2023-10-08T02:18:06;30.50;;;5.38;;
42614;SDS011;28754;47.700;7.924;2023-10-08T02:20:52;17.90;;;4.00;;
42614;SDS011;28754;47.700;7.924;2023-10-08T02:23:39;16.05;;;3.97;;
42614;SDS011;28754;47.700;7.924;2023-10-08T02:26:26;13.07;;;4.55;;
42614;SDS011;28754;47.700;7.924;2023-10-08T02:29:12;12.40;;;2.53;;
42614;SDS011;28754;47.700;7.924;2023-10-08T02:31:59;23.85;;;4.00;;
42614;SDS011;28754;47.700;7.924;2023-10-08T02:34:46;20.55;;;3.53;;
42614;SDS011;28754;47.700;7.924;2023-10-08T02:37:32;16.40;;;3.97;;
42614;SDS011;28754;47.700;7.924;2023-10-08T02:40:21;16.77;;;4.70;;
42614;SDS011;28754;47.700;7.924;2023-10-08T02:43:14;20.67;;;7.35;;
42614;SDS011;28754;47.700;7.924;2023-10-08T02:46:01;22.55;;;5.88;;
42614;SDS011;28754;47.700;7.924;2023-10-08T02:48:52;24.42;;;4.88;;
42614;SDS011;28754;47.700;7.924;2023-10-08T02:51:40;34.97;;;7.45;;
42614;SDS011;28754;47.700;7.924;2023-10-08T02:54:27;24.83;;;4.32;;
42614;SDS011;28754;47.700;7.924;2023-10-08T02:57:22;28.88;;;6.65;;
42614;SDS011;28754;47.700;7.924;2023-10-08T03:00:09;32.80;;;6.60;;
42614;SDS011;28754;47.700;7.924;2023-10-08T03:03:02;29.92;;;7.03;;
42614;SDS011;28754;47.700;7.924;2023-10-08T03:05:56;22.58;;;5.22;;
42614;SDS011;28754;47.700;7.924;2023-10-08T03:08:42;31.95;;;7.63;;
42614;SDS011;28754;47.700;7.924;2023-10-08T03:11:29;38.92;;;5.97;;
42614;SDS011;28754;47.700;7.924;2023-10-08T03:14:17;38.33;;;8.63;;
42614;SDS011;28754;47.700;7.924;2023-10-08T03:17:08;27.33;;;7.97;;
42614;SDS011;28754;47.700;7.924;2023-10-08T03:19:54;27.27;;;6.75;;
42614;SDS011;28754;47.700;7.924;2023-10-08T03:22:48;37.72;;;7.97;;
42614;SDS011;28754;47.700;7.924;2023-10-08T03:25:35;28.98;;;7.47;;
42614;SDS011;28754;47.700;7.924;2023-10-08T03:28:27;33.38;;;7.10;;
42614;SDS011;28754;47.700;7.924;2023-10-08T03:31:16;24.00;;;7.70;;
42614;SDS011;28754;47.700;7.924;2023-10-08T03:34:04;33.83;;;6.07;;
42614;SDS011;28754;47.700;7.924;2023-10-08T03:36:52;36.53;;;6.53;;
42614;SDS011;28754;47.700;7.924;2023-10-08T03:39:49;30.30;;;6.57;;
42614;SDS011;28754;47.700;7.924;2023-10-08T03:42:56;32.13;;;6.50;;
42614;SDS011;28754;47.700;7.924;2023-10-08T03:45:43;23.75;;;6.65;;
42614;SDS011;28754;47.700;7.924;2023-10-08T03:48:45;21.65;;;6.78;;
42614;SDS011;28754;47.700;7.924;2023-10-08T03:51:31;22.95;;;6.10;;
42614;SDS011;28754;47.700;7.924;2023-10-08T03:54:25;32.33;;;7.53;;
42614;SDS011;28754;47.700;7.924;2023-10-08T03:57:21;26.63;;;6.30;;
42614;SDS011;28754;47.700;7.924;2023-10-08T04:00:27;29.42;;;6.72;;
42614;SDS011;28754;47.700;7.924;2023-10-08T04:03:17;22.23;;;6.10;;
42614;SDS011;28754;47.700;7.924;2023-10-08T04:06:24;22.05;;;7.45;;
42614;SDS011;28754;47.700;7.924;2023-10-08T04:09:22;18.50;;;6.03;;
42614;SDS011;28754;47.700;7.924;2023-10-08T04:12:11;29.98;;;7.00;;
42614;SDS011;28754;47.700;7.924;2023-10-08T04:15:05;32.17;;;6.32;;
42614;SDS011;28754;47.700;7.924;2023-10-08T04:17:53;28.20;;;6.03;;
42614;SDS011;28754;47.700;7.924;2023-10-08T04:20:40;21.27;;;6.25;;
42614;SDS011;28754;47.700;7.924;2023-10-08T04:26:32;29.60;;;7.65;;
42614;SDS011;28754;47.700;7.924;2023-10-08T04:29:18;16.48;;;5.10;;
42614;SDS011;28754;47.700;7.924;2023-10-08T04:32:08;25.70;;;6.03;;
42614;SDS011;28754;47.700;7.924;2023-10-08T04:34:58;24.65;;;5.55;;
42614;SDS011;28754;47.700;7.924;2023-10-08T04:37:46;30.83;;;6.22;;
42614;SDS011;28754;47.700;7.924;2023-10-08T04:40:38;27.33;;;5.85;;
42614;SDS011;28754;47.700;7.924;2023-10-08T04:43:34;26.80;;;6.53;;
42614;SDS011;28754;47.700;7.924;2023-10-08T04:46:23;23.58;;;4.85;;
42614;SDS011;28754;47.700;7.924;2023-10-08T04:49:25;30.73;;;8.20;;
42614;SDS011;28754;47.700;7.924;2023-10-08T04:52:14;32.92;;;8.05;;
42614;SDS011;28754;47.700;7.924;2023-10-08T04:55:01;26.20;;;6.82;;
42614;SDS011;28754;47.700;7.924;2023-10-08T04:57:58;23.88;;;5.20;;
42614;SDS011;28754;47.700;7.924;2023-10-08T05:00:45;21.98;;;6.15;;
42614;SDS011;28754;47.700;7.924;2023-10-08T05:03:45;20.35;;;4.82;;
42614;SDS011;28754;47.700;7.924;2023-10-08T05:06:42;38.90;;;6.13;;
42614;SDS011;28754;47.700;7.924;2023-10-08T05:09:47;23.02;;;4.72;;
42614;SDS011;28754;47.700;7.924;2023-10-08T05:12:49;20.70;;;7.25;;
42614;SDS011;28754;47.700;7.924;2023-10-08T05:15:51;23.10;;;4.88;;
42614;SDS011;28754;47.700;7.924;2023-10-08T05:22:01;29.75;;;5.00;;
42614;SDS011;28754;47.700;7.924;2023-10-08T05:25:03;25.65;;;5.40;;
42614;SDS011;28754;47.700;7.924;2023-10-08T05:28:19;27.25;;;5.75;;
42614;SDS011;28754;47.700;7.924;2023-10-08T05:31:11;21.05;;;6.28;;
42614;SDS011;28754;47.700;7.924;2023-10-08T05:34:00;20.05;;;5.03;;
42614;SDS011;28754;47.700;7.924;2023-10-08T05:39:52;21.58;;;5.47;;
42614;SDS011;28754;47.700;7.924;2023-10-08T05:42:44;31.52;;;5.43;;
42614;SDS011;28754;47.700;7.924;2023-10-08T05:45:35;27.20;;;6.03;;
42614;SDS011;28754;47.700;7.924;2023-10-08T05:48:22;33.53;;;5.63;;
42614;SDS011;28754;47.700;7.924;2023-10-08T05:51:13;24.08;;;5.28;;
42614;SDS011;28754;47.700;7.924;2023-10-08T05:54:16;28.70;;;6.07;;
42614;SDS011;28754;47.700;7.924;2023-10-08T05:57:15;28.88;;;6.40;;
42614;SDS011;28754;47.700;7.924;2023-10-08T06:00:21;23.05;;;6.10;;
42614;SDS011;28754;47.700;7.924;2023-10-08T06:03:21;31.00;;;6.72;;
42614;SDS011;28754;47.700;7.924;2023-10-08T06:06:45;29.50;;;6.90;;
42614;SDS011;28754;47.700;7.924;2023-10-08T06:09:43;22.67;;;6.35;;
42614;SDS011;28754;47.700;7.924;2023-10-08T06:12:47;27.75;;;5.97;;
42614;SDS011;28754;47.700;7.924;2023-10-08T06:15:46;22.42;;;6.40;;
42614;SDS011;28754;47.700;7.924;2023-10-08T06:18:54;25.02;;;5.20;;
42614;SDS011;28754;47.700;7.924;2023-10-08T06:21:42;22.77;;;6.90;;
42614;SDS011;28754;47.700;7.924;2023-10-08T06:24:29;41.95;;;8.90;;
42614;SDS011;28754;47.700;7.924;2023-10-08T06:27:15;30.75;;;6.60;;
42614;SDS011;28754;47.700;7.924;2023-10-08T06:30:03;22.02;;;5.55;;
42614;SDS011;28754;47.700;7.924;2023-10-08T06:32:51;21.80;;;5.47;;
42614;SDS011;28754;47.700;7.924;2023-10-08T06:35:39;20.80;;;5.07;;
42614;SDS011;28754;47.700;7.924;2023-10-08T06:38:30;31.83;;;5.55;;
42614;SDS011;28754;47.700;7.924;2023-10-08T06:41:19;30.50;;;6.20;;
42614;SDS011;28754;47.700;7.924;2023-10-08T06:44:05;25.85;;;6.13;;
42614;SDS011;28754;47.700;7.924;2023-10-08T06:46:52;25.10;;;6.40;;
42614;SDS011;28754;47.700;7.924;2023-10-08T06:49:40;28.00;;;6.88;;
42614;SDS011;28754;47.700;7.924;2023-10-08T06:52:29;25.50;;;6.15;;
42614;SDS011;28754;47.700;7.924;2023-10-08T06:55:16;24.20;;;5.60;;
42614;SDS011;28754;47.700;7.924;2023-10-08T06:58:03;35.83;;;7.53;;
42614;SDS011;28754;47.700;7.924;2023-10-08T07:00:54;36.35;;;6.65;;
42614;SDS011;28754;47.700;7.924;2023-10-08T07:03:41;20.90;;;6.78;;
42614;SDS011;28754;47.700;7.924;2023-10-08T07:06:28;24.60;;;5.68;;
42614;SDS011;28754;47.700;7.924;2023-10-08T07:09:18;23.25;;;5.72;;
42614;SDS011;28754;47.700;7.924;2023-10-08T07:12:13;19.45;;;6.47;;
42614;SDS011;28754;47.700;7.924;2023-10-08T07:15:00;21.17;;;7.13;;
42614;SDS011;28754;47.700;7.924;2023-10-08T07:17:47;23.52;;;5.63;;
42614;SDS011;28754;47.700;7.924;2023-10-08T07:20:37;32.42;;;6.72;;
42614;SDS011;28754;47.700;7.924;2023-10-08T07:23:25;20.85;;;6.72;;
42614;SDS011;28754;47.700;7.924;2023-10-08T07:26:13;23.50;;;6.30;;
42614;SDS011;28754;47.700;7.924;2023-10-08T07:29:04;20.42;;;4.65;;
42614;SDS011;28754;47.700;7.924;2023-10-08T07:31:55;19.98;;;5.32;;
42614;SDS011;28754;47.700;7.924;2023-10-08T07:34:42;19.05;;;4.88;;
42614;SDS011;28754;47.700;7.924;2023-10-08T07:37:30;22.30;;;6.10;;
42614;SDS011;28754;47.700;7.924;2023-10-08T07:40:18;25.23;;;5.85;;
42614;SDS011;28754;47.700;7.924;2023-10-08T07:43:06;26.02;;;7.15;;
42614;SDS011;28754;47.700;7.924;2023-10-08T07:45:54;32.08;;;6.20;;
42614;SDS011;28754;47.700;7.924;2023-10-08T07:48:41;18.92;;;4.50;;
42614;SDS011;28754;47.700;7.924;2023-10-08T07:51:30;27.20;;;5.85;;
42614;SDS011;28754;47.700;7.924;2023-10-08T07:54:20;10.30;;;3.75;;
42614;SDS011;28754;47.700;7.924;2023-10-08T07:57:09;15.82;;;4.63;;
42614;SDS011;28754;47.700;7.924;2023-10-08T07:59:58;17.75;;;3.30;;
42614;SDS011;28754;47.700;7.924;2023-10-08T08:03:04;19.05;;;4.15;;
42614;SDS011;28754;47.700;7.924;2023-10-08T08:05:51;18.08;;;5.63;;
42614;SDS011;28754;47.700;7.924;2023-10-08T08:08:39;18.30;;;4.07;;
42614;SDS011;28754;47.700;7.924;2023-10-08T08:11:26;16.42;;;5.25;;
42614;SDS011;28754;47.700;7.924;2023-10-08T08:14:13;16.05;;;4.85;;
42614;SDS011;28754;47.700;7.924;2023-10-08T08:17:10;19.95;;;6.00;;
42614;SDS011;28754;47.700;7.924;2023-10-08T08:19:59;13.95;;;3.58;;
42614;SDS011;28754;47.700;7.924;2023-10-08T08:22:52;17.60;;;5.53;;
42614;SDS011;28754;47.700;7.924;2023-10-08T08:25:40;23.45;;;6.45;;
42614;SDS011;28754;47.700;7.924;2023-10-08T08:28:43;19.38;;;5.00;;
42614;SDS011;28754;47.700;7.924;2023-10-08T08:31:32;16.45;;;5.53;;
42614;SDS011;28754;47.700;7.924;2023-10-08T08:34:21;10.77;;;4.50;;
42614;SDS011;28754;47.700;7.924;2023-10-08T08:37:12;36.03;;;6.38;;
42614;SDS011;28754;47.700;7.924;2023-10-08T08:39:59;16.83;;;4.13;;
42614;SDS011;28754;47.700;7.924;2023-10-08T08:42:49;14.95;;;5.22;;
42614;SDS011;28754;47.700;7.924;2023-10-08T08:45:38;15.90;;;4.80;;
42614;SDS011;28754;47.700;7.924;2023-10-08T08:48:26;26.05;;;5.38;;
42614;SDS011;28754;47.700;7.924;2023-10-08T08:51:13;16.35;;;4.57;;
42614;SDS011;28754;47.700;7.924;2023-10-08T08:54:00;17.15;;;4.53;;
42614;SDS011;28754;47.700;7.924;2023-10-08T08:57:00;22.13;;;5.68;;
42614;SDS011;28754;47.700;7.924;2023-10-08T08:59:52;11.43;;;4.68;;
42614;SDS011;28754;47.700;7.924;2023-10-08T09:02:40;19.20;;;5.13;;
42614;SDS011;28754;47.700;7.924;2023-10-08T09:05:27;14.27;;;4.35;;
42614;SDS011;28754;47.700;7.924;2023-10-08T09:08:20;19.65;;;4.45;;
42614;SDS011;28754;47.700;7.924;2023-10-08T09:11:13;11.88;;;3.78;;
42614;SDS011;28754;47.700;7.924;2023-10-08T09:14:02;12.23;;;3.75;;
42614;SDS011;28754;47.700;7.924;2023-10-08T09:16:49;19.33;;;4.97;;
42614;SDS011;28754;47.700;7.924;2023-10-08T09:19:36;12.63;;;5.78;;
42614;SDS011;28754;47.700;7.924;2023-10-08T09:22:24;10.50;;;3.63;;
42614;SDS011;28754;47.700;7.924;2023-10-08T09:25:11;16.50;;;4.45;;
42614;SDS011;28754;47.700;7.924;2023-10-08T09:28:08;16.38;;;4.53;;
42614;SDS011;28754;47.700;7.924;2023-10-08T09:30:58;14.73;;;5.43;;
42614;SDS011;28754;47.700;7.924;2023-10-08T09:33:54;10.48;;;3.97;;
42614;SDS011;28754;47.700;7.924;2023-10-08T09:36:42;19.65;;;4.78;;
42614;SDS011;28754;47.700;7.924;2023-10-08T09:39:30;11.85;;;6.03;;
42614;SDS011;28754;47.700;7.924;2023-10-08T09:42:20;11.52;;;4.13;;
42614;SDS011;28754;47.700;7.924;2023-10-08T09:45:10;16.33;;;5.70;;
42614;SDS011;28754;47.700;7.924;2023-10-08T09:47:57;19.77;;;5.20;;
42614;SDS011;28754;47.700;7.924;2023-10-08T09:50:47;15.50;;;4.03;;
42614;SDS011;28754;47.700;7.924;2023-10-08T09:56:50;18.73;;;4.13;;
42614;SDS011;28754;47.700;7.924;2023-10-08T09:59:39;19.40;;;5.35;;
42614;SDS011;28754;47.700;7.924;2023-10-08T10:02:27;21.13;;;4.65;;
42614;SDS011;28754;47.700;7.924;2023-10-08T10:05:20;14.95;;;4.18;;
42614;SDS011;28754;47.700;7.924;2023-10-08T10:08:07;18.50;;;4.55;;
42614;SDS011;28754;47.700;7.924;2023-10-08T10:10:58;17.38;;;5.05;;
42614;SDS011;28754;47.700;7.924;2023-10-08T10:13:50;13.57;;;4.88;;
42614;SDS011;28754;47.700;7.924;2023-10-08T10:16:48;24.13;;;6.57;;
42614;SDS011;28754;47.700;7.924;2023-10-08T10:20:01;17.98;;;5.93;;
42614;SDS011;28754;47.700;7.924;2023-10-08T10:22:49;12.05;;;3.83;;
42614;SDS011;28754;47.700;7.924;2023-10-08T10:25:36;10.45;;;4.43;;
42614;SDS011;28754;47.700;7.924;2023-10-08T10:28:25;14.55;;;3.78;;
42614;SDS011;28754;47.700;7.924;2023-10-08T10:31:18;16.00;;;5.55;;
42614;SDS011;28754;47.700;7.924;2023-10-08T10:34:06;21.33;;;7.22;;
42614;SDS011;28754;47.700;7.924;2023-10-08T10:36:56;12.25;;;4.05;;
42614;SDS011;28754;47.700;7.924;2023-10-08T10:39:57;10.18;;;3.85;;
42614;SDS011;28754;47.700;7.924;2023-10-08T10:42:47;15.65;;;4.28;;
42614;SDS011;28754;47.700;7.924;2023-10-08T10:45:39;22.10;;;4.10;;
42614;SDS011;28754;47.700;7.924;2023-10-08T10:48:27;17.85;;;4.78;;
42614;SDS011;28754;47.700;7.924;2023-10-08T10:51:20;13.38;;;4.35;;
42614;SDS011;28754;47.700;7.924;2023-10-08T10:54:08;15.10;;;3.83;;
42614;SDS011;28754;47.700;7.924;2023-10-08T10:56:57;17.98;;;5.80;;
42614;SDS011;28754;47.700;7.924;2023-10-08T10:59:51;18.95;;;5.82;;
42614;SDS011;28754;47.700;7.924;2023-10-08T11:02:40;12.27;;;3.70;;
42614;SDS011;28754;47.700;7.924;2023-10-08T11:05:29;15.88;;;4.25;;
42614;SDS011;28754;47.700;7.924;2023-10-08T11:08:24;16.95;;;4.32;;
42614;SDS011;28754;47.700;7.924;2023-10-08T11:11:12;9.10;;;3.75;;
42614;SDS011;28754;47.700;7.924;2023-10-08T11:14:03;16.88;;;3.92;;
42614;SDS011;28754;47.700;7.924;2023-10-08T11:16:50;14.80;;;5.10;;
42614;SDS011;28754;47.700;7.924;2023-10-08T11:19:37;16.13;;;4.32;;
42614;SDS011;28754;47.700;7.924;2023-10-08T11:22:28;16.20;;;4.00;;
42614;SDS011;28754;47.700;7.924;2023-10-08T11:25:30;14.52;;;3.97;;
42614;SDS011;28754;47.700;7.924;2023-10-08T11:28:17;13.38;;;3.72;;
42614;SDS011;28754;47.700;7.924;2023-10-08T11:31:04;15.43;;;4.72;;
42614;SDS011;28754;47.700;7.924;2023-10-08T11:33:58;28.48;;;4.82;;
42614;SDS011;28754;47.700;7.924;2023-10-08T11:36:52;18.57;;;4.57;;
42614;SDS011;28754;47.700;7.924;2023-10-08T11:39:39;13.98;;;3.70;;
42614;SDS011;28754;47.700;7.924;2023-10-08T11:42:31;15.85;;;3.67;;
42614;SDS011;28754;47.700;7.924;2023-10-08T11:45:20;12.13;;;4.35;;
42614;SDS011;28754;47.700;7.924;2023-10-08T11:48:27;13.80;;;4.00;;
42614;SDS011;28754;47.700;7.924;2023-10-08T11:51:14;14.82;;;5.32;;
42614;SDS011;28754;47.700;7.924;2023-10-08T11:54:03;13.35;;;4.20;;
42614;SDS011;28754;47.700;7.924;2023-10-08T11:56:59;22.30;;;5.80;;
42614;SDS011;28754;47.700;7.924;2023-10-08T11:59:48;19.35;;;3.72;;
42614;SDS011;28754;47.700;7.924;2023-10-08T12:02:40;16.05;;;3.80;;
42614;SDS011;28754;47.700;7.924;2023-10-08T12:05:29;14.18;;;4.53;;
42614;SDS011;28754;47.700;7.924;2023-10-08T12:08:18;14.35;;;4.95;;
42614;SDS011;28754;47.700;7.924;2023-10-08T12:11:08;15.80;;;4.93;;
42614;SDS011;28754;47.700;7.924;2023-10-08T12:13:57;13.90;;;5.43;;
42614;SDS011;28754;47.700;7.924;2023-10-08T12:16:47;13.45;;;3.78;;
42614;SDS011;28754;47.700;7.924;2023-10-08T12:19:34;20.65;;;4.57;;
42614;SDS011;28754;47.700;7.924;2023-10-08T12:22:21;26.80;;;4.05;;
42614;SDS011;28754;47.700;7.924;2023-10-08T12:25:08;10.77;;;4.35;;
42614;SDS011;28754;47.700;7.924;2023-10-08T12:27:55;13.30;;;3.72;;
42614;SDS011;28754;47.700;7.924;2023-10-08T12:30:43;12.32;;;3.55;;
42614;SDS011;28754;47.700;7.924;2023-10-08T12:33:29;12.70;;;3.90;;
42614;SDS011;28754;47.700;7.924;2023-10-08T12:36:17;16.10;;;5.05;;
42614;SDS011;28754;47.700;7.924;2023-10-08T12:39:04;12.80;;;3.53;;
42614;SDS011;28754;47.700;7.924;2023-10-08T12:42:00;16.25;;;4.90;;
42614;SDS011;28754;47.700;7.924;2023-10-08T12:44:51;19.00;;;5.20;;
42614;SDS011;28754;47.700;7.924;2023-10-08T12:47:38;13.18;;;3.38;;
42614;SDS011;28754;47.700;7.924;2023-10-08T12:50:25;16.25;;;5.15;;
42614;SDS011;28754;47.700;7.924;2023-10-08T12:53:28;14.93;;;4.30;;
42614;SDS011;28754;47.700;7.924;2023-10-08T12:56:22;16.85;;;4.72;;
42614;SDS011;28754;47.700;7.924;2023-10-08T12:59:17;12.90;;;5.30;;
42614;SDS011;28754;47.700;7.924;2023-10-08T13:02:07;12.77;;;4.50;;
42614;SDS011;28754;47.700;7.924;2023-10-08T13:04:56;13.43;;;4.30;;
42614;SDS011;28754;47.700;7.924;2023-10-08T13:07:45;15.43;;;5.25;;
42614;SDS011;28754;47.700;7.924;2023-10-08T13:10:32;13.80;;;4.90;;
42614;SDS011;28754;47.700;7.924;2023-10-08T13:13:18;24.00;;;5.28;;
42614;SDS011;28754;47.700;7.924;2023-10-08T13:16:05;13.57;;;4.80;;
42614;SDS011;28754;47.700;7.924;2023-10-08T13:18:53;21.08;;;4.13;;
42614;SDS011;28754;47.700;7.924;2023-10-08T13:21:43;10.15;;;3.80;;
42614;SDS011;28754;47.700;7.924;2023-10-08T13:24:30;12.50;;;4.15;;
42614;SDS011;28754;47.700;7.924;2023-10-08T13:27:16;12.80;;;4.85;;
42614;SDS011;28754;47.700;7.924;2023-10-08T13:30:03;18.65;;;3.10;;
42614;SDS011;28754;47.700;7.924;2023-10-08T13:32:57;10.93;;;3.55;;
42614;SDS011;28754;47.700;7.924;2023-10-08T13:35:43;18.17;;;3.63;;
42614;SDS011;28754;47.700;7.924;2023-10-08T13:38:30;9.38;;;2.83;;
42614;SDS011;28754;47.700;7.924;2023-10-08T13:41:17;23.23;;;4.43;;
42614;SDS011;28754;47.700;7.924;2023-10-08T13:44:04;6.97;;;1.80;;
42614;SDS011;28754;47.700;7.924;2023-10-08T13:46:53;8.68;;;2.95;;
42614;SDS011;28754;47.700;7.924;2023-10-08T13:49:43;11.35;;;3.28;;
42614;SDS011;28754;47.700;7.924;2023-10-08T13:52:30;12.05;;;2.63;;
42614;SDS011;28754;47.700;7.924;2023-10-08T13:55:19;11.30;;;3.65;;
42614;SDS011;28754;47.700;7.924;2023-10-08T13:58:11;11.13;;;3.50;;
42614;SDS011;28754;47.700;7.924;2023-10-08T14:00:59;16.52;;;4.13;;
42614;SDS011;28754;47.700;7.924;2023-10-08T14:03:50;7.60;;;2.97;;
42614;SDS011;28754;47.700;7.924;2023-10-08T14:06:42;9.75;;;3.47;;
42614;SDS011;28754;47.700;7.924;2023-10-08T14:09:33;14.52;;;3.30;;
42614;SDS011;28754;47.700;7.924;2023-10-08T14:12:23;7.82;;;2.88;;
42614;SDS011;28754;47.700;7.924;2023-10-08T14:15:10;11.80;;;3.90;;
42614;SDS011;28754;47.700;7.924;2023-10-08T14:18:00;9.77;;;3.50;;
42614;SDS011;28754;47.700;7.924;2023-10-08T14:20:51;10.15;;;2.75;;
42614;SDS011;28754;47.700;7.924;2023-10-08T14:23:39;9.38;;;2.63;;
42614;SDS011;28754;47.700;7.924;2023-10-08T14:26:26;9.55;;;3.17;;
42614;SDS011;28754;47.700;7.924;2023-10-08T14:29:20;10.32;;;2.83;;
42614;SDS011;28754;47.700;7.924;2023-10-08T14:32:10;10.48;;;2.50;;
42614;SDS011;28754;47.700;7.924;2023-10-08T14:34:57;13.73;;;3.25;;
42614;SDS011;28754;47.700;7.924;2023-10-08T14:37:43;15.55;;;3.95;;
42614;SDS011;28754;47.700;7.924;2023-10-08T14:40:48;9.32;;;2.38;;
42614;SDS011;28754;47.700;7.924;2023-10-08T14:43:54;12.18;;;2.40;;
42614;SDS011;28754;47.700;7.924;2023-10-08T14:46:43;10.52;;;2.13;;
42614;SDS011;28754;47.700;7.924;2023-10-08T14:49:30;7.90;;;2.08;;
42614;SDS011;28754;47.700;7.924;2023-10-08T14:52:19;10.02;;;2.95;;
42614;SDS011;28754;47.700;7.924;2023-10-08T14:55:06;10.80;;;2.85;;
42614;SDS011;28754;47.700;7.924;2023-10-08T14:57:52;13.57;;;2.95;;
42614;SDS011;28754;47.700;7.924;2023-10-08T15:00:43;11.95;;;3.58;;
42614;SDS011;28754;47.700;7.924;2023-10-08T15:03:33;13.27;;;3.00;;
42614;SDS011;28754;47.700;7.924;2023-10-08T15:06:22;11.88;;;3.42;;
42614;SDS011;28754;47.700;7.924;2023-10-08T15:09:10;22.13;;;3.65;;
42614;SDS011;28754;47.700;7.924;2023-10-08T15:12:05;18.20;;;3.60;;
42614;SDS011;28754;47.700;7.924;2023-10-08T15:14:55;15.20;;;3.92;;
42614;SDS011;28754;47.700;7.924;2023-10-08T15:17:43;19.92;;;3.15;;
42614;SDS011;28754;47.700;7.924;2023-10-08T15:20:31;10.85;;;3.28;;
42614;SDS011;28754;47.700;7.924;2023-10-08T15:23:19;10.00;;;2.92;;
42614;SDS011;28754;47.700;7.924;2023-10-08T15:26:11;13.48;;;3.13;;
42614;SDS011;28754;47.700;7.924;2023-10-08T15:28:58;13.23;;;4.38;;
42614;SDS011;28754;47.700;7.924;2023-10-08T15:31:45;18.70;;;3.90;;
42614;SDS011;28754;47.700;7.924;2023-10-08T15:34:33;23.75;;;3.97;;
42614;SDS011;28754;47.700;7.924;2023-10-08T15:37:19;16.95;;;3.65;;
42614;SDS011;28754;47.700;7.924;2023-10-08T15:40:07;21.67;;;4.05;;
42614;SDS011;28754;47.700;7.924;2023-10-08T15:43:03;12.73;;;2.83;;
42614;SDS011;28754;47.700;7.924;2023-10-08T15:45:50;9.98;;;3.17;;
42614;SDS011;28754;47.700;7.924;2023-10-08T15:48:36;13.45;;;5.55;;
42614;SDS011;28754;47.700;7.924;2023-10-08T15:51:23;14.00;;;4.55;;
42614;SDS011;28754;47.700;7.924;2023-10-08T15:54:15;10.93;;;3.67;;
42614;SDS011;28754;47.700;7.924;2023-10-08T15:57:06;10.93;;;3.70;;
42614;SDS011;28754;47.700;7.924;2023-10-08T15:59:53;16.17;;;3.08;;
42614;SDS011;28754;47.700;7.924;2023-10-08T16:02:40;10.90;;;4.25;;
42614;SDS011;28754;47.700;7.924;2023-10-08T16:05:29;7.80;;;3.30;;
42614;SDS011;28754;47.700;7.924;2023-10-08T16:08:15;18.63;;;3.83;;
42614;SDS011;28754;47.700;7.924;2023-10-08T16:11:02;8.32;;;3.40;;
42614;SDS011;28754;47.700;7.924;2023-10-08T16:13:49;11.93;;;4.75;;
42614;SDS011;28754;47.700;7.924;2023-10-08T16:16:36;16.63;;;4.40;;
42614;SDS011;28754;47.700;7.924;2023-10-08T16:19:22;12.30;;;3.55;;
42614;SDS011;28754;47.700;7.924;2023-10-08T16:22:12;9.20;;;3.35;;
42614;SDS011;28754;47.700;7.924;2023-10-08T16:24:59;9.38;;;2.80;;
42614;SDS011;28754;47.700;7.924;2023-10-08T16:27:48;12.27;;;3.63;;
42614;SDS011;28754;47.700;7.924;2023-10-08T16:30:38;9.50;;;3.40;;
42614;SDS011;28754;47.700;7.924;2023-10-08T16:33:25;15.77;;;3.83;;
42614;SDS011;28754;47.700;7.924;2023-10-08T16:36:15;14.40;;;4.18;;
42614;SDS011;28754;47.700;7.924;2023-10-08T16:39:02;8.60;;;3.05;;
42614;SDS011;28754;47.700;7.924;2023-10-08T16:41:51;21.38;;;4.10;;
42614;SDS011;28754;47.700;7.924;2023-10-08T16:44:41;14.70;;;4.20;;
42614;SDS011;28754;47.700;7.924;2023-10-08T16:47:27;14.38;;;4.03;;
42614;SDS011;28754;47.700;7.924;2023-10-08T16:50:14;15.55;;;4.63;;
42614;SDS011;28754;47.700;7.924;2023-10-08T16:53:02;18.77;;;4.25;;
42614;SDS011;28754;47.700;7.924;2023-10-08T16:55:49;10.98;;;4.28;;
42614;SDS011;28754;47.700;7.924;2023-10-08T16:58:36;13.27;;;3.60;;
42614;SDS011;28754;47.700;7.924;2023-10-08T17:01:22;10.55;;;3.22;;
42614;SDS011;28754;47.700;7.924;2023-10-08T17:04:09;15.55;;;3.42;;
42614;SDS011;28754;47.700;7.924;2023-10-08T17:06:58;11.65;;;3.53;;
42614;SDS011;28754;47.700;7.924;2023-10-08T17:09:44;11.02;;;3.88;;